Terminal Aerodrome Forecast
Issued by NWS

Home | Current Version | Previous Version | Graphics & Text | Print | Product List | Glossary On
Versions: 1 2 3 4 5 6 7 8 9 10 11 12 13 14 15
000
FTUS43 KLSX 232300
TAFSUS
TAF
KSUS 232324Z 2400/2424 VRB03KT P6SM SCT040 BKN120
     FM240400 00000KT P6SM BKN030
      TEMPO 2408/2412 3SM BR BKN015
     FM241500 24005KT P6SM FEW015 SCT030
     FM242100 21006KT P6SM FEW040 SCT250=

USA.gov is the U.S. government's official web portal to all federal, state and local government web resources and services.